Main page
METAR-TAF:

METAR-TAF

Airports :

Chennault International Airport

Lake Charles, Louisiana, United States

latitude: 30-13N, longitude: 093-09W, elevation: 13 ft

Current weather observation

The report was made 9 minutes ago, at 17:53 UTC
Wind 16 mph from the Southwest with gusts up to 22 mph
Temperature 77°F
Humidity 79%
Pressure 29.90 in. Hg
Visibility: 10 miles
Overcast at a height of 1600 ft

METAR: KCWF 091753Z 22014G19KT 10SM OVC016 25/21 A2990

Time: 12:02 (18:02 UTC)


TAF: missing

Weather observations and forecasts of more than 4000 airports (METAR and TAF reports).

The available stations are represented by yellow and red dots on the map.

Hover mouse over dot to see the name of the station.

Then click to see weather observations and forecasts.

To change the map : click on the green buttons with a black cross to zoom in, on the green button with a dash to zoom out, or on the green arrows for adjacent maps.


METAR-TAF: